Espanola, NM (87532)

2:59 PM MDT on July 03, 2015 (GMT -0600)
Fairview- Prof D | | Change Station
CLOSE
Current Station
Personal Weather Station
Location: Espanola, NM
Elevation: 5670 ft
Nearby Weather Stations

Elev 5670 ft 36.00 °N, 106.05 °W | Updated 1 second ago

Partly Cloudy
Partly Cloudy
84.3 °F
Feels Like 84 °F
N
2.0
Wind Variable Wind from WNW
Gusts 7.0 mph

Today
High -- | Low -- °F
--% Chance of Precip.
Yesterday
High -- | Low -- °F
Precip. -- in
5:52 AM 8:25 PM
Waning Gibbous, 96% visible
Pressure 30.29 in
Visibility 10.0 miles
Clouds Scattered Clouds 5000 ft
Mostly Cloudy 6500 ft
Overcast 9000 ft
Heat Index 84 °F
Dew Point 59 °F
Humidity 43%
Rainfall 0.00 in
Snow Depth Not available.
UV 4 out of 12
Pollen .50 out of 12
Air Quality Not available.
Flu Activity Not available.
METAR KLAM 032035Z AUTO 00000KT 10SM SCT050 BKN065 OVC090 23/10 A3029 RMK AO2 T02290104

More Conditions Fewer Conditions

Pressure 30.29 in
Visibility 10.0 miles
Clouds Scattered Clouds 5000 ft
Mostly Cloudy 6500 ft
Overcast 9000 ft
Heat Index 84 °F
Dew Point 59 °F
Humidity 43%
Rainfall 0.00 in
Snow Depth Not available.
UV 4 out of 12
Pollen .50 out of 12
Air Quality Not available.
Flu Activity Not available.
METAR KLAM 032035Z AUTO 00000KT 10SM SCT050 BKN065 OVC090 23/10 A3029 RMK AO2 T02290104

More Conditions Fewer Conditions

10-Day Weather Forecast

×

Almanac

Astronomy

Jul. 03, 2015 Rise Set
Actual Time
Civil Twilight
Nautical Twilight
Astronomical Twilight
Moon
Length of Visible Light
Length of Day
Tomorrow will be .
, % of the Moon is Illuminated

Today's Extremes

State Highs State Lows

Community

WunderPhotos

Upload Photos

1,834,774 photos uploaded!

WunderBlogs® & News

Nearby

Air Quality

  Air Quality AQ Index Pollutant
Not available.

Snow Depth

Station Depth Elevation

Earthquake Activity

City Distance Mag. Time & Date
Minimum magnitude displayed is 2.5.

Coastal Water Temperatures

Place Temperature

Stations

Nearby Weather Stations

Station Location Temp. Windchill Dew Point Humidity Wind Precip. Elev Updated Type